createdAt,value
2023-02-15T00:01:41.079Z,7.68
2023-02-15T00:04:08.664Z,8.32
2023-02-15T00:06:35.866Z,8.15
2023-02-15T00:09:03.811Z,9.32
2023-02-15T00:11:49.509Z,9.27
2023-02-15T00:14:25.622Z,8.27
2023-02-15T00:16:54.049Z,8.20
2023-02-15T00:19:22.039Z,8.38
2023-02-15T00:21:49.719Z,7.00
2023-02-15T00:24:18.520Z,6.75
2023-02-15T00:26:46.297Z,6.45
2023-02-15T00:29:13.995Z,6.50
2023-02-15T00:31:41.229Z,7.60
2023-02-15T00:34:11.922Z,7.82
2023-02-15T00:36:39.327Z,7.97
2023-02-15T00:39:06.524Z,8.00
2023-02-15T00:41:34.020Z,8.38
2023-02-15T00:44:01.412Z,9.38
2023-02-15T00:46:30.322Z,11.07
2023-02-15T00:48:57.435Z,8.65
2023-02-15T00:51:24.612Z,9.63
2023-02-15T00:53:51.785Z,9.80
2023-02-15T00:56:18.957Z,10.57
2023-02-15T00:58:46.193Z,9.30
2023-02-15T01:01:18.149Z,9.95
2023-02-15T01:03:47.343Z,9.60
2023-02-15T01:06:15.000Z,10.63
2023-02-15T01:08:44.150Z,9.85
2023-02-15T01:11:13.085Z,8.68
2023-02-15T01:13:40.269Z,8.48
2023-02-15T01:16:08.015Z,10.15
2023-02-15T01:18:35.162Z,11.02
2023-02-15T01:21:10.186Z,11.75
2023-02-15T01:23:38.188Z,11.43
2023-02-15T01:26:06.363Z,9.30
2023-02-15T01:28:33.756Z,10.85
2023-02-15T01:31:05.849Z,10.20
2023-02-15T01:33:32.953Z,10.10
2023-02-15T01:36:00.844Z,9.40
2023-02-15T01:38:28.079Z,10.55
2023-02-15T01:41:15.731Z,10.07
2023-02-15T01:43:44.327Z,10.63
2023-02-15T01:46:12.871Z,9.68
2023-02-15T01:48:44.596Z,9.40
2023-02-15T01:51:12.121Z,10.77
2023-02-15T01:53:43.576Z,11.00
2023-02-15T01:56:13.025Z,11.45
2023-02-15T01:58:40.402Z,10.98
2023-02-15T02:01:09.190Z,11.75
2023-02-15T02:03:42.680Z,10.75
2023-02-15T02:06:09.822Z,10.52
2023-02-15T02:08:36.915Z,10.80
2023-02-15T02:11:04.084Z,11.35
2023-02-15T02:13:31.258Z,11.20
2023-02-15T02:16:05.760Z,11.23
2023-02-15T02:18:32.833Z,11.98
2023-02-15T02:20:59.937Z,13.10
2023-02-15T02:23:33.222Z,12.90
2023-02-15T02:26:19.080Z,12.57
2023-02-15T02:28:52.138Z,12.27
2023-02-15T02:31:39.628Z,11.95
2023-02-15T02:34:19.158Z,12.57
2023-02-15T02:36:46.222Z,13.82
2023-02-15T02:39:25.616Z,13.05
2023-02-15T02:42:03.669Z,12.63
2023-02-15T02:44:43.748Z,12.20
2023-02-15T02:47:13.848Z,12.88
2023-02-15T02:49:42.459Z,13.88
2023-02-15T02:52:29.595Z,11.05
2023-02-15T02:54:57.963Z,10.23
2023-02-15T02:57:28.270Z,11.27
2023-02-15T02:59:56.856Z,12.23
2023-02-15T03:02:27.830Z,11.73
2023-02-15T03:05:04.486Z,12.50
2023-02-15T03:07:32.679Z,11.60
2023-02-15T03:10:02.228Z,10.40
2023-02-15T03:12:30.929Z,12.95
2023-02-15T03:15:02.474Z,13.75
2023-02-15T03:17:32.882Z,14.43
2023-02-15T03:20:03.695Z,13.68
2023-02-15T03:22:37.781Z,13.50
2023-02-15T03:25:11.078Z,15.20
2023-02-15T03:27:44.983Z,14.93
2023-02-15T03:30:13.690Z,15.25
2023-02-15T03:32:41.036Z,14.55
2023-02-15T03:35:08.487Z,16.17
2023-02-15T03:37:41.562Z,14.90
2023-02-15T03:40:39.985Z,14.52
2023-02-15T03:43:25.535Z,15.70
2023-02-15T03:45:57.098Z,15.90
2023-02-15T03:48:44.545Z,14.25
2023-02-15T03:51:32.960Z,15.70
2023-02-15T03:54:00.772Z,14.75
2023-02-15T03:56:28.125Z,15.75
2023-02-15T03:59:14.392Z,15.80
2023-02-15T04:01:58.336Z,15.75
2023-02-15T04:04:36.141Z,14.43
2023-02-15T04:07:05.007Z,14.40
2023-02-15T04:09:50.971Z,14.40
2023-02-15T04:12:18.212Z,14.85
2023-02-15T04:15:04.049Z,20.73
2023-02-15T04:17:31.220Z,21.63
2023-02-15T04:20:17.246Z,19.92
2023-02-15T04:23:02.867Z,21.10
2023-02-15T04:25:29.948Z,18.15
2023-02-15T04:27:57.095Z,17.92
2023-02-15T04:30:26.510Z,15.48
2023-02-15T04:32:54.792Z,18.23
2023-02-15T04:35:23.289Z,17.77
2023-02-15T04:37:50.444Z,17.45
2023-02-15T04:40:19.680Z,17.65
2023-02-15T04:42:49.242Z,19.38
2023-02-15T04:45:16.423Z,15.55
2023-02-15T04:47:43.540Z,17.33
2023-02-15T04:50:10.965Z,17.50
2023-02-15T04:52:38.131Z,17.00
2023-02-15T04:55:05.365Z,17.73
2023-02-15T04:57:32.516Z,17.98
2023-02-15T05:00:02.005Z,20.35
2023-02-15T05:02:29.189Z,24.48
2023-02-15T05:04:56.400Z,23.88
2023-02-15T05:07:23.636Z,21.02
2023-02-15T05:09:50.745Z,21.02
2023-02-15T05:12:17.981Z,21.55
2023-02-15T05:14:45.052Z,19.63
2023-02-15T05:17:12.135Z,17.00
2023-02-15T05:19:39.230Z,16.08
2023-02-15T05:22:06.333Z,17.75
2023-02-15T05:24:52.364Z,18.50
2023-02-15T05:27:38.509Z,18.65
2023-02-15T05:30:06.103Z,19.40
2023-02-15T05:32:33.420Z,18.85
2023-02-15T05:35:00.610Z,20.55
2023-02-15T05:37:27.818Z,19.60
2023-02-15T05:39:54.951Z,22.20
2023-02-15T05:42:22.089Z,20.50
2023-02-15T05:44:49.230Z,21.13
2023-02-15T05:47:16.332Z,20.98
2023-02-15T05:49:43.455Z,20.17
2023-02-15T05:52:10.575Z,20.45
2023-02-15T05:54:37.637Z,20.40
2023-02-15T05:57:04.719Z,21.27
2023-02-15T05:59:31.853Z,20.17
2023-02-15T06:01:59.072Z,21.33
2023-02-15T06:04:26.174Z,21.13
2023-02-15T06:06:53.264Z,23.67
2023-02-15T06:09:20.766Z,21.13
2023-02-15T06:11:47.926Z,20.95
2023-02-15T06:14:15.098Z,21.40
2023-02-15T06:16:42.357Z,22.23
2023-02-15T06:19:09.504Z,22.45
2023-02-15T06:21:36.615Z,23.15
2023-02-15T06:24:03.812Z,21.92
2023-02-15T06:26:30.883Z,21.58
2023-02-15T06:28:57.954Z,20.08
2023-02-15T06:31:25.279Z,21.48
2023-02-15T06:33:52.500Z,21.02
2023-02-15T06:36:19.657Z,20.90
2023-02-15T06:38:46.936Z,20.75
2023-02-15T06:41:14.040Z,20.92
2023-02-15T06:43:41.270Z,20.63
2023-02-15T06:46:08.383Z,20.83
2023-02-15T06:48:35.613Z,20.88
2023-02-15T06:51:02.840Z,22.63
2023-02-15T06:53:30.223Z,23.73
2023-02-15T06:56:10.145Z,22.00
2023-02-15T06:58:37.964Z,19.58
2023-02-15T07:01:05.149Z,20.92
2023-02-15T07:03:32.863Z,20.35
2023-02-15T07:06:01.056Z,18.95
2023-02-15T07:08:28.604Z,21.65
2023-02-15T07:11:16.487Z,22.25
2023-02-15T07:13:43.690Z,20.77
2023-02-15T07:16:11.277Z,21.83
2023-02-15T07:18:38.656Z,20.75
2023-02-15T07:21:08.726Z,21.02
2023-02-15T07:23:39.394Z,21.63
2023-02-15T07:26:07.377Z,21.25
2023-02-15T07:28:35.250Z,22.67
2023-02-15T07:31:05.884Z,22.20
2023-02-15T07:33:33.541Z,20.23
2023-02-15T07:36:03.062Z,22.95
2023-02-15T07:38:34.902Z,21.58
2023-02-15T07:41:06.355Z,23.42
2023-02-15T07:43:37.719Z,21.73
2023-02-15T07:46:05.865Z,22.65
2023-02-15T07:48:33.097Z,22.27
2023-02-15T07:51:00.812Z,23.02
2023-02-15T07:53:28.084Z,21.92
2023-02-15T07:55:55.926Z,23.80
2023-02-15T07:58:43.045Z,23.70
2023-02-15T08:01:10.180Z,22.95
2023-02-15T08:03:37.331Z,23.52
2023-02-15T08:06:04.713Z,24.05
2023-02-15T08:08:31.957Z,22.90
2023-02-15T08:11:25.644Z,24.05
2023-02-15T08:13:57.147Z,23.92
2023-02-15T08:16:25.321Z,23.95
2023-02-15T08:18:53.255Z,23.08
2023-02-15T08:21:21.878Z,22.90
2023-02-15T08:23:50.195Z,24.65
2023-02-15T08:26:17.888Z,24.30
2023-02-15T08:28:45.362Z,24.50
2023-02-15T08:31:13.541Z,24.00
2023-02-15T08:33:41.722Z,25.90
2023-02-15T08:36:12.932Z,24.40
2023-02-15T08:38:40.335Z,25.88
2023-02-15T08:41:16.516Z,26.10
2023-02-15T08:43:44.320Z,26.02
2023-02-15T08:46:12.341Z,27.50
2023-02-15T08:48:39.720Z,26.83
2023-02-15T08:51:14.649Z,26.00
2023-02-15T08:53:42.805Z,26.77
2023-02-15T08:56:10.634Z,28.00
2023-02-15T08:58:37.972Z,27.00
2023-02-15T09:01:18.750Z,26.42
2023-02-15T09:03:47.226Z,27.75
2023-02-15T09:06:14.687Z,27.60
2023-02-15T09:08:41.819Z,29.50
2023-02-15T09:11:11.729Z,26.58
2023-02-15T09:13:39.598Z,28.30
2023-02-15T09:16:07.958Z,27.48
2023-02-15T09:18:37.238Z,29.20
2023-02-15T09:21:11.841Z,29.83
2023-02-15T09:23:42.216Z,30.50
2023-02-15T09:26:10.897Z,28.02
2023-02-15T09:28:38.234Z,29.42
2023-02-15T09:31:09.037Z,30.65
2023-02-15T09:33:37.096Z,29.42
2023-02-15T09:36:05.265Z,29.10
2023-02-15T09:38:32.547Z,31.33
2023-02-15T09:41:19.884Z,29.70
2023-02-15T09:43:56.022Z,28.75
2023-02-15T09:46:35.485Z,30.30
2023-02-15T09:49:09.001Z,30.88
2023-02-15T09:51:47.186Z,30.40
2023-02-15T09:54:26.188Z,28.88
2023-02-15T09:57:00.323Z,29.92
2023-02-15T09:59:36.671Z,29.38
2023-02-15T10:02:11.427Z,28.25
2023-02-15T10:04:45.404Z,27.88
2023-02-15T10:07:37.286Z,28.17
2023-02-15T10:10:24.068Z,30.63
2023-02-15T10:12:59.111Z,27.05
2023-02-15T10:15:52.948Z,30.65
2023-02-15T10:18:25.544Z,29.63
2023-02-15T10:23:23.392Z,26.95
2023-02-15T10:25:57.510Z,28.83
2023-02-15T10:28:30.253Z,27.92
2023-02-15T10:31:05.026Z,28.67
2023-02-15T10:33:41.119Z,28.13
2023-02-15T10:36:26.723Z,30.58
2023-02-15T10:39:11.349Z,28.35
2023-02-15T10:41:41.492Z,27.23
2023-02-15T10:44:27.179Z,29.40
2023-02-15T10:47:06.365Z,28.08
2023-02-15T10:49:36.614Z,27.90
2023-02-15T10:52:06.692Z,26.95
2023-02-15T10:54:37.400Z,28.15
2023-02-15T10:57:07.062Z,29.02
2023-02-15T10:59:40.845Z,29.08
2023-02-15T11:02:23.257Z,26.90
2023-02-15T11:04:54.069Z,29.02
2023-02-15T11:07:42.265Z,28.63
2023-02-15T11:10:28.265Z,29.08
2023-02-15T11:12:57.081Z,30.05
2023-02-15T11:15:36.078Z,27.08
2023-02-15T11:18:22.079Z,27.88
2023-02-15T11:20:49.138Z,26.10
2023-02-15T11:23:17.305Z,28.58
2023-02-15T11:25:48.516Z,27.08
2023-02-15T11:28:21.005Z,29.95
2023-02-15T11:30:53.057Z,27.45
2023-02-15T11:33:23.574Z,26.92
2023-02-15T11:36:09.486Z,28.13
2023-02-15T11:38:40.276Z,28.88
2023-02-15T11:41:10.880Z,28.67
2023-02-15T11:43:56.849Z,28.50
2023-02-15T11:46:24.116Z,28.95
2023-02-15T11:48:51.445Z,27.88
2023-02-15T11:51:22.117Z,29.58
2023-02-15T11:53:51.856Z,27.88
2023-02-15T11:56:23.670Z,27.90
2023-02-15T11:58:54.123Z,28.77
2023-02-15T12:01:21.184Z,28.52
2023-02-15T12:04:10.996Z,28.65
2023-02-15T12:06:40.196Z,27.77
2023-02-15T12:09:07.531Z,26.60
2023-02-15T12:11:38.796Z,25.45
2023-02-15T12:14:09.837Z,26.02
2023-02-15T12:16:49.133Z,27.70
2023-02-15T12:19:38.018Z,28.23
2023-02-15T12:22:07.565Z,26.35
2023-02-15T12:24:39.648Z,27.05
2023-02-15T12:27:08.259Z,27.70
2023-02-15T12:29:44.026Z,27.25
2023-02-15T12:32:31.662Z,26.45
2023-02-15T12:35:18.997Z,24.90
2023-02-15T12:37:58.222Z,27.00
2023-02-15T12:40:32.052Z,25.45
2023-02-15T12:42:59.690Z,26.52
2023-02-15T12:45:26.855Z,25.30
2023-02-15T12:48:12.960Z,26.45
2023-02-15T12:50:44.055Z,23.23
2023-02-15T12:53:23.706Z,23.60
2023-02-15T12:55:52.817Z,23.75
2023-02-15T12:58:21.468Z,24.80
2023-02-15T13:00:48.878Z,26.10
2023-02-15T13:03:20.780Z,24.90
2023-02-15T13:05:57.828Z,24.90
2023-02-15T13:08:27.894Z,24.92
2023-02-15T13:10:55.070Z,25.00
2023-02-15T13:13:24.175Z,25.50
2023-02-15T13:15:52.362Z,23.80
2023-02-15T13:18:31.592Z,24.20
2023-02-15T13:21:01.023Z,23.23
2023-02-15T13:23:29.774Z,24.17
2023-02-15T13:26:01.129Z,23.48
2023-02-15T13:28:41.850Z,21.63
2023-02-15T13:31:25.122Z,23.25
2023-02-15T13:33:54.725Z,22.10
2023-02-15T13:36:40.423Z,22.65
2023-02-15T13:39:26.634Z,22.35
2023-02-15T13:41:56.479Z,22.67
2023-02-15T13:44:23.538Z,22.75
2023-02-15T13:47:09.353Z,22.10
2023-02-15T13:49:42.299Z,19.80
2023-02-15T13:52:09.453Z,21.05
2023-02-15T13:54:36.552Z,19.48
2023-02-15T13:57:29.700Z,19.55
2023-02-15T14:00:12.220Z,19.75
2023-02-15T14:03:04.324Z,20.27
2023-02-15T14:05:56.735Z,21.38
2023-02-15T14:08:46.800Z,19.83
2023-02-15T14:11:36.928Z,20.58
2023-02-15T14:14:03.999Z,19.90
2023-02-15T14:17:05.658Z,19.95
2023-02-15T14:19:36.243Z,21.25
2023-02-15T14:22:10.602Z,20.67
2023-02-15T14:24:44.244Z,19.52
2023-02-15T14:27:30.149Z,19.35
2023-02-15T14:30:04.548Z,21.45
2023-02-15T14:32:38.916Z,20.98
2023-02-15T14:35:11.180Z,20.65
2023-02-15T14:37:44.777Z,20.45
2023-02-15T14:40:31.181Z,19.40
2023-02-15T14:43:01.049Z,18.92
2023-02-15T14:45:28.753Z,19.92
2023-02-15T14:48:06.269Z,19.20
2023-02-15T14:50:38.227Z,19.70
2023-02-15T14:53:25.669Z,19.15
2023-02-15T14:56:18.308Z,19.02
2023-02-15T14:58:52.628Z,18.35
2023-02-15T15:01:30.612Z,20.60
2023-02-15T15:04:03.495Z,19.17
2023-02-15T15:06:31.382Z,19.55
2023-02-15T15:09:17.365Z,19.45
2023-02-15T15:11:45.940Z,20.27
2023-02-15T15:14:33.196Z,21.13
2023-02-15T15:17:01.239Z,20.30
2023-02-15T15:19:53.464Z,19.92
2023-02-15T15:22:24.626Z,19.38
2023-02-15T15:24:53.236Z,19.98
2023-02-15T15:27:39.317Z,20.05
2023-02-15T15:30:15.678Z,21.10
2023-02-15T15:32:48.843Z,20.90
2023-02-15T15:35:27.535Z,21.40
2023-02-15T15:38:00.828Z,20.10
2023-02-15T15:40:41.065Z,20.25
2023-02-15T15:43:29.226Z,20.65
2023-02-15T15:45:56.392Z,20.42
2023-02-15T15:48:35.523Z,19.77
2023-02-15T15:51:06.162Z,20.60
2023-02-15T15:53:34.887Z,21.02
2023-02-15T15:56:07.177Z,19.40
2023-02-15T15:58:35.586Z,20.02
2023-02-15T16:01:06.588Z,18.98
2023-02-15T16:03:33.708Z,19.98
2023-02-15T16:06:01.917Z,20.15
2023-02-15T16:08:30.391Z,20.20
2023-02-15T16:10:58.083Z,20.33
2023-02-15T16:13:25.601Z,21.52
2023-02-15T16:15:56.563Z,19.73
2023-02-15T16:18:28.073Z,19.00
2023-02-15T16:21:02.606Z,20.25
2023-02-15T16:23:41.384Z,20.15
2023-02-15T16:26:30.280Z,20.77
2023-02-15T16:28:57.405Z,18.15
2023-02-15T16:31:24.812Z,19.15
2023-02-15T16:33:55.104Z,19.00
2023-02-15T16:36:23.629Z,19.42
2023-02-15T16:38:50.665Z,20.40
2023-02-15T16:41:19.356Z,21.35
2023-02-15T16:43:48.617Z,20.23
2023-02-15T16:46:21.360Z,20.77
2023-02-15T16:48:52.692Z,19.38
2023-02-15T16:51:26.487Z,19.02
2023-02-15T16:53:56.099Z,20.05
2023-02-15T16:56:27.981Z,21.17
2023-02-15T16:58:56.142Z,19.23
2023-02-15T17:01:25.667Z,20.75
2023-02-15T17:03:53.782Z,21.20
2023-02-15T17:06:26.777Z,20.88
2023-02-15T17:08:55.849Z,21.88
2023-02-15T17:11:24.163Z,22.63
2023-02-15T17:14:11.286Z,21.38
2023-02-15T17:16:58.651Z,21.25
2023-02-15T17:19:44.564Z,21.55
2023-02-15T17:22:18.646Z,20.60
2023-02-15T17:24:46.873Z,21.60
2023-02-15T17:27:19.078Z,21.63
2023-02-15T17:29:48.544Z,20.42
2023-02-15T17:32:26.259Z,21.75
2023-02-15T17:35:01.276Z,20.92
2023-02-15T17:37:37.505Z,20.13
2023-02-15T17:40:24.479Z,21.27
2023-02-15T17:42:51.709Z,20.70
2023-02-15T17:45:18.884Z,22.60
2023-02-15T17:47:47.853Z,21.30
2023-02-15T17:50:21.155Z,21.42
2023-02-15T17:52:48.425Z,21.23
2023-02-15T17:55:35.556Z,22.80
2023-02-15T17:58:04.190Z,21.48
2023-02-15T18:00:50.928Z,20.42
2023-02-15T18:03:37.291Z,20.58
2023-02-15T18:06:23.205Z,22.15
2023-02-15T18:09:11.527Z,22.17
2023-02-15T18:11:39.891Z,21.30
2023-02-15T18:14:10.443Z,21.33
2023-02-15T18:16:43.162Z,20.45
2023-02-15T18:19:14.128Z,21.77
2023-02-15T18:21:41.442Z,21.63
2023-02-15T18:24:14.921Z,21.70
2023-02-15T18:26:42.262Z,22.05
2023-02-15T18:29:09.418Z,21.50
2023-02-15T18:31:36.719Z,22.10
2023-02-15T18:34:04.178Z,22.35
2023-02-15T18:36:32.993Z,23.52
2023-02-15T18:39:03.775Z,22.40
2023-02-15T18:41:32.916Z,21.27
2023-02-15T18:43:59.985Z,23.90
2023-02-15T18:46:27.092Z,21.08
2023-02-15T18:48:54.282Z,19.50
2023-02-15T18:51:22.680Z,19.90
2023-02-15T18:53:51.777Z,21.13
2023-02-15T18:56:20.356Z,22.10
2023-02-15T18:58:47.850Z,23.35
2023-02-15T19:01:16.884Z,21.65
2023-02-15T19:03:45.162Z,22.50
2023-02-15T19:06:13.626Z,20.88
2023-02-15T19:08:40.718Z,21.95
2023-02-15T19:11:12.033Z,21.33
2023-02-15T19:13:39.162Z,23.13
2023-02-15T19:16:06.421Z,21.90
2023-02-15T19:18:33.580Z,21.45
2023-02-15T19:21:00.805Z,20.52
2023-02-15T19:23:27.953Z,22.15
2023-02-15T19:25:55.331Z,23.35
2023-02-15T19:28:27.038Z,21.10
2023-02-15T19:30:54.316Z,23.93
2023-02-15T19:33:23.625Z,23.02
2023-02-15T19:35:54.114Z,21.92
2023-02-15T19:38:22.484Z,21.58
2023-02-15T19:40:49.755Z,22.63
2023-02-15T19:43:18.478Z,23.52
2023-02-15T19:45:45.884Z,23.40
2023-02-15T19:48:17.014Z,23.98
2023-02-15T19:50:47.513Z,23.02
2023-02-15T19:53:19.626Z,21.75
2023-02-15T19:55:46.851Z,23.10
2023-02-15T19:58:14.101Z,21.98
2023-02-15T20:00:41.463Z,22.73
2023-02-15T20:03:09.847Z,22.15
2023-02-15T20:05:40.204Z,22.90
2023-02-15T20:08:10.763Z,22.88
2023-02-15T20:10:39.213Z,23.38
2023-02-15T20:13:06.436Z,23.40
2023-02-15T20:15:35.071Z,22.27
2023-02-15T20:18:04.243Z,24.00
2023-02-15T20:20:33.574Z,24.05
2023-02-15T20:23:00.798Z,23.45
2023-02-15T20:25:29.269Z,23.40
2023-02-15T20:27:59.928Z,23.02
2023-02-15T20:30:28.951Z,24.38
2023-02-15T20:32:56.266Z,23.27
2023-02-15T20:35:25.007Z,23.90
2023-02-15T20:37:53.694Z,24.85
2023-02-15T20:40:22.233Z,24.38
2023-02-15T20:42:49.760Z,24.38
2023-02-15T20:45:24.521Z,24.05
2023-02-15T20:47:53.144Z,24.77
2023-02-15T20:50:24.979Z,24.90
2023-02-15T20:52:53.653Z,23.23
2023-02-15T20:55:27.082Z,24.52
2023-02-15T20:57:54.274Z,25.08
2023-02-15T21:00:23.899Z,27.13
2023-02-15T21:02:52.084Z,24.65
2023-02-15T21:05:26.356Z,26.45
2023-02-15T21:07:54.060Z,25.35
2023-02-15T21:10:22.587Z,24.58
2023-02-15T21:12:50.285Z,25.13
2023-02-15T21:15:29.239Z,26.05
2023-02-15T21:17:58.031Z,25.17
2023-02-15T21:20:25.558Z,27.20
2023-02-15T21:22:53.119Z,26.73
2023-02-15T21:25:25.281Z,26.70
2023-02-15T21:27:52.472Z,27.38
2023-02-15T21:30:21.765Z,26.70
2023-02-15T21:32:49.069Z,27.02
2023-02-15T21:35:16.676Z,25.75
2023-02-15T21:37:44.391Z,25.70
2023-02-15T21:40:14.514Z,26.65
2023-02-15T21:43:00.302Z,27.17
2023-02-15T21:45:46.227Z,26.77
2023-02-15T21:48:13.475Z,26.35
2023-02-15T21:51:00.315Z,26.45
2023-02-15T21:53:28.939Z,25.48
2023-02-15T21:55:57.574Z,27.67
2023-02-15T21:58:28.883Z,26.55
2023-02-15T22:00:57.531Z,26.85
2023-02-15T22:03:25.853Z,27.27
2023-02-15T22:05:52.957Z,28.20
2023-02-15T22:08:20.388Z,26.88
2023-02-15T22:10:48.066Z,27.40
2023-02-15T22:13:20.816Z,27.63
2023-02-15T22:15:47.970Z,28.80
2023-02-15T22:18:20.204Z,28.10
2023-02-15T22:20:47.711Z,27.52
2023-02-15T22:23:14.856Z,27.08
2023-02-15T22:25:42.145Z,26.70
2023-02-15T22:28:16.370Z,26.92
2023-02-15T22:30:45.439Z,28.50
2023-02-15T22:33:41.782Z,29.50
2023-02-15T22:36:19.062Z,29.30
2023-02-15T22:38:46.203Z,27.20
2023-02-15T22:41:13.628Z,28.20
2023-02-15T22:43:42.969Z,27.52
2023-02-15T22:46:17.808Z,26.27
2023-02-15T22:48:45.802Z,26.38
2023-02-15T22:51:16.925Z,26.77
2023-02-15T22:53:44.200Z,26.98
2023-02-15T22:56:17.929Z,26.58
2023-02-15T22:58:45.520Z,26.77
2023-02-15T23:01:21.793Z,26.08
2023-02-15T23:03:48.991Z,26.38
2023-02-15T23:06:16.408Z,25.27
2023-02-15T23:08:43.488Z,24.42
2023-02-15T23:11:11.254Z,25.75
2023-02-15T23:13:38.388Z,28.13
2023-02-15T23:16:06.904Z,25.95
2023-02-15T23:18:34.125Z,25.58
2023-02-15T23:21:03.347Z,27.17
2023-02-15T23:23:41.140Z,26.95
2023-02-15T23:26:15.900Z,25.77
2023-02-15T23:28:43.156Z,24.80
2023-02-15T23:31:16.052Z,27.15
2023-02-15T23:33:43.406Z,25.98
2023-02-15T23:36:25.306Z,26.52
2023-02-15T23:38:52.690Z,27.73
2023-02-15T23:41:22.916Z,27.17
2023-02-15T23:43:59.938Z,26.17
2023-02-15T23:46:28.622Z,27.20
2023-02-15T23:48:56.052Z,26.67
2023-02-15T23:51:24.142Z,28.88
2023-02-15T23:53:51.410Z,27.52
2023-02-15T23:56:18.511Z,29.13
2023-02-15T23:58:46.417Z,28.17
